Time;durP1;ratioP1;P1;durP2;ratioP2;P2;SDS_P1;SDS_P2;PMS_P1;PMS_P2;Temp;Humidity;BMP_temperature;BMP_pressure;BME280_temperature;BME280_humidity;BME280_pressure;Samples;Min_cycle;Max_cycle;Signal;HPM_P1;HPM_P2
2024/04/04 00:02:26;;;;;;;2.17;0.90;;;;;;;-145.69;61.85;52177.03;5073226;28;20195;-79
2024/04/04 00:05:05;;;;;;;5.13;0.88;;;;;;;-145.69;61.14;52182.97;5073593;28;20191;-80
2024/04/04 00:07:31;;;;;;;1.63;0.70;;;;;;;-145.69;61.04;52194.88;5071769;28;20299;-80
2024/04/04 00:09:58;;;;;;;1.95;0.70;;;;;;;-145.69;61.01;52167.13;5063601;28;20317;-80
2024/04/04 00:12:25;;;;;;;2.50;1.00;;;;;;;-145.69;60.97;52151.28;5072825;28;20256;-80
2024/04/04 00:14:52;;;;;;;2.70;0.80;;;;;;;-145.69;60.26;52145.34;5073368;28;20228;-79
2024/04/04 00:17:17;;;;;;;3.77;0.70;;;;;;;-145.69;60.31;52175.06;5072869;28;20226;-80
2024/04/04 00:19:45;;;;;;;3.00;1.10;;;;;;;-145.69;60.19;52163.19;5073321;28;20202;-80
2024/04/04 00:22:12;;;;;;;3.25;0.60;;;;;;;-145.69;60.60;52167.13;5072599;28;20199;-80
2024/04/04 00:24:39;;;;;;;3.00;0.80;;;;;;;-145.69;60.60;52190.91;5068819;28;20205;-80
2024/04/04 00:27:05;;;;;;;2.15;0.77;;;;;;;-145.69;60.98;52179.03;5052562;28;20195;-79
2024/04/04 00:29:31;;;;;;;2.73;0.97;;;;;;;-145.69;61.26;52179.03;5052491;28;20233;-79
2024/04/04 00:31:57;;;;;;;1.65;0.93;;;;;;;-145.69;62.17;52179.03;5052920;28;20203;-80
2024/04/04 00:34:23;;;;;;;2.10;0.90;;;;;;;-145.69;62.54;52194.88;5052792;28;20605;-80
2024/04/04 00:36:53;;;;;;;3.28;0.73;;;;;;;-145.69;62.56;52159.22;5052731;28;20203;-80
2024/04/04 00:39:19;;;;;;;1.67;0.83;;;;;;;-145.69;63.46;52155.25;5052531;28;20218;-80
2024/04/04 00:41:45;;;;;;;6.60;0.90;;;;;;;-145.69;63.21;52182.97;5052370;28;20206;-80
2024/04/04 00:44:11;;;;;;;2.93;0.90;;;;;;;-145.69;63.56;52161.19;5068189;28;20195;-80
2024/04/04 00:46:37;;;;;;;0.90;0.67;;;;;;;-145.69;64.71;52175.06;5072445;28;20201;-79
2024/04/04 00:49:04;;;;;;;2.43;0.80;;;;;;;-145.69;65.08;52202.78;5072617;28;20202;-80
2024/04/04 00:51:30;;;;;;;5.13;1.03;;;;;;;-145.69;65.57;52184.97;5072819;28;20234;-80
2024/04/04 00:53:57;;;;;;;3.30;1.10;;;;;;;-145.69;65.29;52198.81;5072504;28;20234;-79
2024/04/04 00:56:23;;;;;;;2.80;1.10;;;;;;;-145.69;65.38;52192.88;5072394;28;20210;-79
2024/04/04 00:58:50;;;;;;;1.33;0.90;;;;;;;-145.69;65.48;52198.81;5072205;28;20202;-80
2024/04/04 01:01:15;;;;;;;2.23;1.10;;;;;;;-145.69;65.34;52210.72;5072217;28;20233;-80
2024/04/04 01:03:42;;;;;;;3.80;1.47;;;;;;;-145.69;65.91;52182.97;5072251;28;20539;-80
2024/04/04 01:06:07;;;;;;;3.67;1.50;;;;;;;-145.69;65.47;52204.75;5072330;28;20205;-80
2024/04/04 01:08:34;;;;;;;2.13;1.43;;;;;;;-145.69;65.52;52202.78;5071880;28;20195;-80
2024/04/04 01:11:01;;;;;;;3.67;1.73;;;;;;;-145.69;65.72;52212.69;5071948;28;20223;-79
2024/04/04 01:13:28;;;;;;;4.07;1.47;;;;;;;-145.69;65.70;52216.66;5072434;28;20222;-79
2024/04/04 01:15:53;;;;;;;2.77;1.47;;;;;;;-145.69;65.86;52198.81;5072331;28;20234;-80
2024/04/04 01:18:24;;;;;;;4.97;1.73;;;;;;;-145.69;66.01;52206.75;5071907;28;20285;-80
2024/04/04 01:20:50;;;;;;;3.33;1.43;;;;;;;-145.69;66.04;52196.84;5071418;28;20210;-80
2024/04/04 01:23:16;;;;;;;1.93;1.33;;;;;;;-145.69;65.80;52226.53;5074480;28;20199;-79
2024/04/04 01:25:43;;;;;;;2.90;1.80;;;;;;;-145.69;65.75;52177.03;5076313;28;20195;-80
2024/04/04 01:28:09;;;;;;;3.00;1.30;;;;;;;-145.69;65.87;52208.72;5076021;28;20207;-79
2024/04/04 01:30:35;;;;;;;3.27;1.60;;;;;;;-145.69;65.85;52151.28;5076476;28;20233;-80
2024/04/04 01:33:01;;;;;;;5.63;1.53;;;;;;;-145.69;65.84;52226.53;5076362;28;20195;-80
2024/04/04 01:35:27;;;;;;;5.10;1.93;;;;;;;-145.69;65.94;52190.91;5076412;28;20203;-80
2024/04/04 01:37:53;;;;;;;4.23;1.50;;;;;;;-145.69;65.92;52222.59;5075884;28;20237;-81
2024/04/04 01:40:19;;;;;;;7.27;1.50;;;;;;;-145.69;65.88;52198.81;5075876;28;20668;-80
2024/04/04 01:42:47;;;;;;;3.47;1.30;;;;;;;-145.69;65.25;52202.78;5076152;28;20195;-80
2024/04/04 01:45:12;;;;;;;2.27;1.10;;;;;;;-145.69;65.33;52190.91;5075783;28;20202;-80
2024/04/04 01:47:38;;;;;;;4.60;1.50;;;;;;;-145.69;65.11;52184.97;5075622;28;20662;-80
2024/04/04 01:50:05;;;;;;;4.17;1.50;;;;;;;-145.69;65.12;52173.09;5075695;28;20222;-79
2024/04/04 01:52:32;;;;;;;2.33;1.20;;;;;;;-145.69;64.71;52171.09;5075648;28;20285;-80
2024/04/04 01:54:57;;;;;;;1.10;1.00;;;;;;;-145.69;64.79;52177.03;5075513;28;20210;-80
2024/04/04 01:57:24;;;;;;;4.53;1.30;;;;;;;-145.69;64.82;52192.88;5075216;28;20202;-80
2024/04/04 01:59:52;;;;;;;2.03;1.00;;;;;;;-145.69;64.76;52186.94;5075457;28;20206;-81
2024/04/04 02:02:18;;;;;;;3.17;1.03;;;;;;;-145.69;64.49;52202.78;5075433;28;20260;-80
2024/04/04 02:04:44;;;;;;;2.03;1.10;;;;;;;-145.69;64.83;52177.03;5076000;28;20218;-80
2024/04/04 02:07:10;;;;;;;3.63;1.00;;;;;;;-145.69;64.63;52206.75;5075214;28;20721;-80
2024/04/04 02:09:36;;;;;;;3.93;1.00;;;;;;;-145.69;64.98;52206.75;5075394;28;20223;-79
2024/04/04 02:12:02;;;;;;;2.17;0.90;;;;;;;-145.69;64.61;52218.63;5075216;28;20198;-80
2024/04/04 02:14:28;;;;;;;4.67;1.17;;;;;;;-145.69;65.11;52182.97;5075514;28;20195;-79
2024/04/04 02:16:56;;;;;;;1.70;0.90;;;;;;;-145.69;65.12;52214.66;5073868;28;20581;-79
2024/04/04 02:19:21;;;;;;;3.93;1.13;;;;;;;-145.69;65.38;52244.38;5074398;28;20282;-80
2024/04/04 02:21:48;;;;;;;4.70;0.90;;;;;;;-145.69;65.62;52228.53;5073989;28;20288;-80
2024/04/04 02:24:13;;;;;;;2.47;1.17;;;;;;;-145.69;67.28;52238.44;5070550;28;20199;-79
2024/04/04 02:26:39;;;;;;;2.03;0.70;;;;;;;-145.69;66.66;52210.72;5074042;28;20210;-78
2024/04/04 02:29:05;;;;;;;0.87;0.70;;;;;;;-145.69;66.72;52202.78;5073942;28;20585;-81
2024/04/04 02:31:31;;;;;;;3.07;0.90;;;;;;;-145.69;66.95;52256.25;5073789;28;20279;-81
2024/04/04 02:33:58;;;;;;;2.40;0.87;;;;;;;-145.69;67.68;52228.53;5073517;28;20203;-81
2024/04/04 02:36:28;;;;;;;4.30;1.10;;;;;;;-145.69;68.86;52218.63;5073777;28;20195;-82
2024/04/04 02:38:54;;;;;;;1.70;0.60;;;;;;;-145.69;68.38;52216.66;5074083;28;20226;-80
2024/04/04 02:41:20;;;;;;;3.03;0.97;;;;;;;-145.69;68.24;52216.66;5074054;28;20688;-80
2024/04/04 02:43:45;;;;;;;3.00;0.73;;;;;;;-145.69;68.39;52214.66;5074028;28;20194;-80
2024/04/04 02:46:13;;;;;;;2.07;0.80;;;;;;;-145.69;68.81;52234.47;5072981;28;20195;-80
2024/04/04 02:48:39;;;;;;;0.70;0.70;;;;;;;-145.69;69.62;52240.41;5073645;28;20206;-80
2024/04/04 02:51:07;;;;;;;4.07;0.70;;;;;;;-145.69;69.03;52200.81;5073257;28;20231;-81
2024/04/04 02:53:33;;;;;;;4.90;1.00;;;;;;;-145.69;69.68;52210.72;5073958;28;20206;-80
2024/04/04 02:56:00;;;;;;;1.77;0.80;;;;;;;-145.69;68.99;52198.81;5073599;28;20554;-80
2024/04/04 02:58:26;;;;;;;4.63;1.03;;;;;;;-145.69;68.54;52218.63;5073692;28;20206;-80
2024/04/04 03:00:52;;;;;;;1.30;0.60;;;;;;;-145.69;68.82;52230.50;5073324;28;20222;-79
2024/04/04 03:03:18;;;;;;;1.50;0.83;;;;;;;-145.69;68.00;52220.59;5073191;28;20212;-79
2024/04/04 03:05:45;;;;;;;1.67;0.80;;;;;;;-145.69;67.92;52222.59;5073020;28;20195;-79
2024/04/04 03:08:13;;;;;;;3.50;1.23;;;;;;;-145.69;67.87;52226.53;5073343;28;20217;-79
2024/04/04 03:10:40;;;;;;;1.50;0.80;;;;;;;-145.69;69.19;52190.91;5073415;28;20227;-79
2024/04/04 03:13:08;;;;;;;0.70;0.70;;;;;;;-145.69;70.29;52238.44;5073214;28;20202;-79
2024/04/04 03:18:15;;;;;;;1.50;0.80;;;;;;;-145.69;71.21;52222.59;5109821;27;20545;-80
2024/04/04 03:20:40;;;;;;;3.57;1.40;;;;;;;-145.69;71.54;52216.66;5110401;28;20250;-80
2024/04/04 03:23:07;;;;;;;3.70;0.90;;;;;;;-145.69;70.92;52250.31;5110248;28;20202;-80
2024/04/04 03:25:33;;;;;;;2.73;0.93;;;;;;;-145.69;70.47;52262.19;5110329;28;20197;-80
2024/04/04 03:27:59;;;;;;;1.70;0.80;;;;;;;-145.69;71.14;52222.59;5110256;28;20270;-79
2024/04/04 03:30:25;;;;;;;1.60;0.93;;;;;;;-145.69;70.59;52224.56;5109790;28;20204;-79
2024/04/04 03:32:52;;;;;;;1.33;1.00;;;;;;;-145.69;71.13;52238.44;5109867;28;20197;-80
2024/04/04 03:35:19;;;;;;;3.77;1.63;;;;;;;-145.69;70.88;52232.50;5109914;28;20790;-79
2024/04/04 03:37:45;;;;;;;2.50;1.30;;;;;;;-145.69;70.92;52234.47;5110179;28;20225;-80
2024/04/04 03:40:12;;;;;;;5.57;1.27;;;;;;;-145.69;70.53;52218.63;5109705;28;20197;-79
2024/04/04 03:42:38;;;;;;;2.20;1.13;;;;;;;-145.69;71.22;52234.47;5110114;28;20201;-80
2024/04/04 03:45:04;;;;;;;2.10;0.87;;;;;;;-145.69;71.41;52254.28;5109685;28;20258;-80
2024/04/04 03:47:34;;;;;;;1.83;0.90;;;;;;;-145.69;71.20;52210.72;5109307;28;20226;-79
2024/04/04 03:49:59;;;;;;;2.37;0.87;;;;;;;-145.69;70.63;52230.50;5110040;28;20194;-80
2024/04/04 03:52:27;;;;;;;3.90;0.70;;;;;;;-145.69;70.31;52202.78;5109524;28;20224;-80
2024/04/04 03:54:53;;;;;;;2.87;1.07;;;;;;;-145.69;69.93;52230.50;5109424;28;20194;-80
2024/04/04 03:57:19;;;;;;;5.80;1.50;;;;;;;-145.69;69.58;52214.66;5109461;28;20228;-80
2024/04/04 03:59:45;;;;;;;4.30;1.20;;;;;;;-145.69;69.79;52230.50;5109577;28;20263;-80
2024/04/04 04:02:11;;;;;;;4.60;1.00;;;;;;;-145.69;68.94;52228.53;5109416;28;20198;-80
2024/04/04 04:04:37;;;;;;;1.97;0.73;;;;;;;-145.69;68.97;52179.03;5109519;28;20683;-80
2024/04/04 04:07:03;;;;;;;2.60;0.90;;;;;;;-145.69;69.31;52226.53;5109501;28;20205;-79
2024/04/04 04:09:30;;;;;;;2.13;0.90;;;;;;;-145.69;69.45;52242.38;5109726;28;20202;-79
2024/04/04 04:11:56;;;;;;;4.53;0.90;;;;;;;-145.69;68.58;52222.59;5108981;28;20725;-79
2024/04/04 04:14:22;;;;;;;1.30;0.90;;;;;;;-145.69;68.29;52234.47;5109198;28;20198;-80
2024/04/04 04:16:48;;;;;;;2.60;1.00;;;;;;;-145.69;68.02;52210.72;5108716;28;20234;-79
2024/04/04 04:19:14;;;;;;;3.57;1.00;;;;;;;-145.69;68.47;52234.47;5108716;28;20194;-81
2024/04/04 04:21:40;;;;;;;2.10;1.03;;;;;;;-145.69;68.25;52238.44;5108310;28;20545;-80
2024/04/04 04:24:06;;;;;;;5.03;1.20;;;;;;;-145.69;68.15;52218.63;5091082;28;20211;-80
2024/04/04 04:26:34;;;;;;;5.00;1.10;;;;;;;-145.69;67.72;52232.50;5088849;28;20202;-81
2024/04/04 04:28:59;;;;;;;2.50;1.00;;;;;;;-145.69;68.20;52250.31;5077852;28;20217;-80
2024/04/04 04:31:27;;;;;;;5.17;1.00;;;;;;;-145.69;68.41;52232.50;5075604;28;20202;-81
2024/04/04 04:33:54;;;;;;;3.43;1.43;;;;;;;-145.69;68.20;52192.88;5074884;28;20203;-80
2024/04/04 04:36:23;;;;;;;3.03;0.93;;;;;;;-145.69;68.40;52246.34;5075131;28;20322;-81
2024/04/04 04:38:49;;;;;;;1.63;0.80;;;;;;;-145.69;68.77;52226.53;5075146;28;20198;-79
2024/04/04 04:41:15;;;;;;;4.03;1.17;;;;;;;-145.69;68.15;52208.72;5075154;28;20263;-79
2024/04/04 04:43:44;;;;;;;5.50;1.00;;;;;;;-145.69;68.03;52260.22;5074665;28;20195;-79
2024/04/04 04:46:12;;;;;;;8.00;1.40;;;;;;;-145.69;68.47;52236.44;5081025;28;20194;-80
2024/04/04 04:48:37;;;;;;;5.40;1.30;;;;;;;-145.69;68.57;52246.34;5094684;28;20201;-79
2024/04/04 04:51:04;;;;;;;6.40;1.43;;;;;;;-145.69;68.23;52244.38;5095100;28;20599;-81
2024/04/04 04:53:30;;;;;;;2.20;1.00;;;;;;;-145.69;68.87;52242.38;5095153;28;20202;-79
2024/04/04 04:55:56;;;;;;;3.47;1.20;;;;;;;-145.69;69.05;52222.59;5095272;28;20209;-79
2024/04/04 04:58:22;;;;;;;3.23;1.07;;;;;;;-145.69;68.55;52234.47;5094619;28;20279;-79
2024/04/04 05:00:51;;;;;;;6.30;1.77;;;;;;;-145.69;68.89;52222.59;5095110;28;20202;-81
2024/04/04 05:03:17;;;;;;;9.00;1.27;;;;;;;-145.69;68.22;52256.25;5094924;28;20667;-81
2024/04/04 05:05:44;;;;;;;3.13;1.03;;;;;;;-145.69;68.22;52234.47;5094080;28;20190;-80
2024/04/04 05:08:09;;;;;;;5.17;1.13;;;;;;;-145.69;67.90;52222.59;5094485;28;20198;-80
2024/04/04 05:10:35;;;;;;;4.23;1.27;;;;;;;-145.69;67.20;52252.28;5094419;28;20194;-79
2024/04/04 05:13:01;;;;;;;6.43;1.40;;;;;;;-145.69;66.96;52198.81;5094477;28;20205;-80
2024/04/04 05:15:27;;;;;;;6.83;1.20;;;;;;;-145.69;66.66;52228.53;5094737;28;20259;-79
2024/04/04 05:17:55;;;;;;;8.53;1.20;;;;;;;-145.69;66.63;52210.72;5094120;28;20242;-79
2024/04/04 05:20:21;;;;;;;6.97;1.30;;;;;;;-145.69;66.30;52220.59;5094132;28;20195;-79
2024/04/04 05:22:47;;;;;;;6.27;1.37;;;;;;;-145.69;65.51;52220.59;5094739;28;20198;-79
2024/04/04 05:25:14;;;;;;;6.97;1.50;;;;;;;-145.69;65.31;52214.66;5093701;28;20198;-79
2024/04/04 05:27:41;;;;;;;6.37;1.37;;;;;;;-145.69;65.29;52226.53;5094613;28;20198;-80
2024/04/04 05:30:10;;;;;;;8.27;1.10;;;;;;;-145.69;64.39;52234.47;5094191;28;20202;-79
2024/04/04 05:32:37;;;;;;;7.67;1.53;;;;;;;-145.69;64.13;52194.88;5094541;28;20209;-81
2024/04/04 05:35:04;;;;;;;5.97;1.50;;;;;;;-145.69;64.02;52218.63;5094208;28;20288;-79
2024/04/04 05:37:31;;;;;;;8.37;1.70;;;;;;;-145.69;63.14;52186.94;5094102;28;20218;-79
2024/04/04 05:39:56;;;;;;;5.73;1.17;;;;;;;-145.69;62.86;52206.75;5093112;28;20202;-80
2024/04/04 05:42:24;;;;;;;6.20;1.50;;;;;;;-145.69;62.66;52198.81;5094326;28;20198;-82
2024/04/04 05:44:49;;;;;;;6.90;1.40;;;;;;;-145.69;62.31;52179.03;5093827;28;20198;-81
2024/04/04 05:47:16;;;;;;;7.07;1.53;;;;;;;-145.69;61.95;52194.88;5093942;28;20252;-81
2024/04/04 05:49:41;;;;;;;6.60;1.37;;;;;;;-145.69;62.07;52250.31;5093691;28;20190;-79
2024/04/04 05:52:09;;;;;;;6.57;1.50;;;;;;;-145.69;61.84;52177.03;5094019;28;20213;-80
2024/04/04 05:54:37;;;;;;;11.50;1.30;;;;;;;-145.69;61.43;52196.84;5093609;28;20209;-80
2024/04/04 05:57:04;;;;;;;5.93;1.40;;;;;;;-145.69;60.95;52188.91;5094032;28;20258;-79
2024/04/04 05:59:30;;;;;;;13.13;1.40;;;;;;;-145.69;61.10;52204.75;5093614;28;20229;-79
2024/04/04 06:01:56;;;;;;;7.38;1.48;;;;;;;-145.69;60.03;52210.72;5093434;28;20577;-79
2024/04/04 06:04:22;;;;;;;6.47;1.37;;;;;;;-145.69;59.94;52198.81;5093679;28;20607;-79
2024/04/04 06:06:48;;;;;;;12.13;2.50;;;;;;;-145.69;59.97;52161.19;5093367;28;20211;-80
2024/04/04 06:09:16;;;;;;;8.13;2.25;;;;;;;-145.69;59.84;52202.78;5093486;28;20198;-79
2024/04/04 06:11:41;;;;;;;8.83;1.93;;;;;;;-145.69;59.03;52169.13;5093490;28;20202;-79
2024/04/04 06:14:08;;;;;;;6.00;1.52;;;;;;;-145.69;59.00;52157.25;5093966;28;20204;-80
2024/04/04 06:16:34;;;;;;;9.95;1.80;;;;;;;-145.69;58.96;52161.19;5093165;28;20229;-79
2024/04/04 06:19:00;;;;;;;7.07;1.42;;;;;;;-145.69;57.92;52167.13;5093080;28;20286;-80
2024/04/04 06:21:26;;;;;;;4.95;1.20;;;;;;;-145.69;57.79;52186.94;5093503;28;20194;-81
2024/04/04 06:23:52;;;;;;;7.28;1.38;;;;;;;-145.69;57.22;52167.13;5093352;28;20202;-80
2024/04/04 06:26:19;;;;;;;6.95;1.30;;;;;;;-145.69;57.25;52192.88;5081741;28;20202;-80
2024/04/04 06:28:47;;;;;;;3.05;0.95;;;;;;;-145.69;56.95;52175.06;5073416;28;20202;-80
2024/04/04 06:31:13;;;;;;;6.68;1.30;;;;;;;-145.69;56.72;52171.09;5072634;28;20194;-80
2024/04/04 06:33:39;;;;;;;4.82;1.10;;;;;;;-145.69;56.81;52173.09;5072909;28;20210;-79
2024/04/04 06:36:05;;;;;;;5.95;1.20;;;;;;;-145.69;56.91;52165.16;5072607;28;20207;-80
2024/04/04 06:38:31;;;;;;;5.82;2.42;;;;;;;-145.69;56.59;52171.09;5087481;28;20221;-79
2024/04/04 06:40:57;;;;;;;3.05;1.90;;;;;;;-145.69;56.09;52169.13;5093163;28;20209;-80
2024/04/04 06:43:25;;;;;;;7.90;1.60;;;;;;;-145.69;55.22;52175.06;5092765;28;20202;-80
2024/04/04 06:45:51;;;;;;;7.18;1.40;;;;;;;-145.69;55.09;52171.09;5092841;28;20251;-80
2024/04/04 06:48:17;;;;;;;5.53;1.10;;;;;;;-145.69;55.22;52163.19;5092564;28;20198;-79
2024/04/04 06:50:42;;;;;;;8.77;1.50;;;;;;;-145.69;55.19;52186.94;5092763;28;20251;-80
2024/04/04 06:53:09;;;;;;;6.10;1.58;;;;;;;-145.69;55.01;52169.13;5093003;28;20198;-79
2024/04/04 06:55:34;;;;;;;9.18;1.65;;;;;;;-145.69;55.01;52188.91;5092998;28;20202;-80
2024/04/04 06:58:01;;;;;;;8.73;1.50;;;;;;;-145.69;54.86;52173.09;5092554;28;20645;-81
2024/04/04 07:00:28;;;;;;;6.03;1.27;;;;;;;-145.69;54.52;52171.09;5072051;28;20568;-81
2024/04/04 07:02:55;;;;;;;6.82;1.63;;;;;;;-145.69;55.33;52171.09;5072216;28;20198;-82
2024/04/04 07:05:20;;;;;;;5.97;1.42;;;;;;;-145.69;54.62;52139.41;5072352;28;20245;-81
2024/04/04 07:07:47;;;;;;;6.25;1.40;;;;;;;-145.69;53.36;52143.38;5080591;28;20202;-80
2024/04/04 07:10:13;;;;;;;4.38;1.40;;;;;;;-145.69;51.40;52149.31;5092867;28;20198;-80
2024/04/04 07:12:40;;;;;;;5.43;1.20;;;;;;;-145.69;50.92;52159.22;5092871;28;20204;-80
2024/04/04 07:15:07;;;;;;;11.43;1.30;;;;;;;-145.69;50.13;52153.28;5092732;28;20208;-80
2024/04/04 07:17:34;;;;;;;4.38;1.08;;;;;;;-145.69;50.48;52159.22;5092224;28;20722;-80
2024/04/04 07:20:00;;;;;;;4.15;1.02;;;;;;;-145.69;49.81;52135.47;5091896;28;20202;-81
2024/04/04 07:22:27;;;;;;;3.17;0.90;;;;;;;-145.69;49.15;52131.50;5092564;28;20257;-80
2024/04/04 07:24:52;;;;;;;6.80;1.08;;;;;;;-145.69;48.54;52127.53;5092579;28;20209;-79
2024/04/04 07:27:19;;;;;;;8.15;1.10;;;;;;;-145.69;48.62;52127.53;5092801;28;20201;-80
2024/04/04 07:29:47;;;;;;;5.03;1.48;;;;;;;-145.69;48.16;52135.47;5092518;28;20206;-81
2024/04/04 07:32:13;;;;;;;3.10;1.40;;;;;;;-145.69;49.46;52115.66;5092630;28;20208;-80
2024/04/04 07:34:40;;;;;;;4.38;0.73;;;;;;;-145.69;49.00;52137.44;5092284;28;20197;-80
2024/04/04 07:37:07;;;;;;;7.07;1.30;;;;;;;-145.69;49.37;52139.41;5092336;28;20230;-81
2024/04/04 07:39:33;;;;;;;6.13;1.10;;;;;;;-145.69;49.53;52149.31;5092516;28;20205;-79
2024/04/04 07:42:00;;;;;;;3.50;0.98;;;;;;;-145.69;49.05;52123.56;5092548;28;20206;-78
2024/04/04 07:44:26;;;;;;;5.63;1.08;;;;;;;-145.69;49.29;52149.31;5092138;28;20202;-79
2024/04/04 07:46:53;;;;;;;5.22;1.20;;;;;;;-145.69;49.02;52127.53;5092413;28;20604;-79
2024/04/04 07:49:19;;;;;;;4.88;1.00;;;;;;;-145.69;48.85;52133.47;5092234;28;20600;-80
2024/04/04 07:51:47;;;;;;;5.97;0.90;;;;;;;-145.69;48.32;52109.72;5092234;28;20202;-81
2024/04/04 07:54:13;;;;;;;7.38;1.20;;;;;;;-145.69;47.47;52131.50;5092002;28;20251;-82
2024/04/04 07:56:39;;;;;;;6.55;1.13;;;;;;;-145.69;48.27;52115.66;5092396;28;20201;-81
2024/04/04 07:59:05;;;;;;;3.58;0.90;;;;;;;-145.69;46.25;52101.78;5091764;28;20306;-81
2024/04/04 08:01:31;;;;;;;4.80;1.38;;;;;;;-145.69;45.03;52113.66;5092286;28;20226;-81
2024/04/04 08:03:57;;;;;;;6.80;1.08;;;;;;;-145.69;45.59;52068.13;5094471;28;20202;-80
2024/04/04 08:06:23;;;;;;;5.10;0.93;;;;;;;-145.69;44.48;52083.97;5096154;28;20194;-81
2024/04/04 08:08:50;;;;;;;7.43;1.20;;;;;;;-145.69;44.38;52095.84;5096181;28;20202;-79
2024/04/04 08:11:16;;;;;;;2.85;0.75;;;;;;;-145.69;44.65;52127.53;5095747;28;20198;-80
2024/04/04 08:13:43;;;;;;;5.70;0.80;;;;;;;-145.69;44.73;52083.97;5095745;28;20202;-79
2024/04/04 08:16:09;;;;;;;5.30;0.90;;;;;;;-145.69;44.34;52111.69;5095801;28;20309;-81
2024/04/04 08:18:35;;;;;;;4.80;0.80;;;;;;;-145.69;42.88;52101.78;5095896;28;20237;-81
2024/04/04 08:21:01;;;;;;;5.57;0.90;;;;;;;-145.69;43.45;52087.94;5095419;28;20202;-80
2024/04/04 08:23:28;;;;;;;2.75;0.73;;;;;;;-145.69;43.14;52133.47;5091746;28;20282;-79
2024/04/04 08:25:56;;;;;;;5.38;1.00;;;;;;;-145.69;42.67;52078.03;5095060;28;20235;-80
2024/04/04 08:28:22;;;;;;;3.35;1.33;;;;;;;-145.69;43.33;52097.84;5095078;28;20661;-80
2024/04/04 08:30:56;;;;;;;3.80;0.98;;;;;;;-145.69;42.22;52080.00;5095317;28;20258;-80
2024/04/04 08:33:22;;;;;;;6.53;1.00;;;;;;;-145.69;42.37;52097.84;5093400;28;20630;-79
2024/04/04 08:35:49;;;;;;;8.63;2.80;;;;;;;-145.69;42.69;52040.41;5095017;28;20281;-79
2024/04/04 08:38:14;;;;;;;3.50;1.08;;;;;;;-145.69;41.49;52080.00;5095072;28;20226;-79
2024/04/04 08:40:41;;;;;;;2.95;0.70;;;;;;;-145.69;41.85;52078.03;5095601;28;20198;-78
2024/04/04 08:43:08;;;;;;;3.08;0.80;;;;;;;-145.69;41.44;52080.00;5095091;28;20202;-78
2024/04/04 08:45:45;;;;;;;6.57;0.95;;;;;;;-145.69;40.72;52095.84;5095496;28;20194;-79
2024/04/04 08:48:14;;;;;;;4.80;1.00;;;;;;;-145.69;41.49;52060.22;5095212;28;20599;-79
2024/04/04 08:50:45;;;;;;;3.08;1.10;;;;;;;-145.69;40.96;52062.19;5094354;28;20194;-79
2024/04/04 08:53:11;;;;;;;1.73;0.73;;;;;;;-145.69;41.27;52091.88;5095051;28;20773;-79
2024/04/04 08:55:38;;;;;;;4.30;0.70;;;;;;;-145.69;41.00;52052.28;5095022;28;20193;-79
2024/04/04 08:58:03;;;;;;;3.85;0.75;;;;;;;-145.69;41.26;52072.09;5095238;28;20226;-80
2024/04/04 09:00:32;;;;;;;2.78;0.80;;;;;;;-145.69;40.96;52056.25;5094909;28;20240;-79
2024/04/04 09:02:57;;;;;;;4.60;0.93;;;;;;;-145.69;41.35;52074.06;5094960;28;20201;-79
2024/04/04 09:05:24;;;;;;;2.35;0.60;;;;;;;-145.69;41.08;52060.22;5094515;28;20600;-80
2024/04/04 09:07:49;;;;;;;4.75;0.90;;;;;;;-145.69;41.26;52052.28;5094409;28;20194;-79
2024/04/04 09:10:17;;;;;;;3.08;0.80;;;;;;;-145.69;40.71;52076.03;5094298;28;20570;-80
2024/04/04 09:12:43;;;;;;;5.50;0.85;;;;;;;-145.69;41.79;52087.94;5092263;28;20321;-81
2024/04/04 09:15:11;;;;;;;3.85;0.88;;;;;;;-145.69;41.37;52062.19;5074880;28;20231;-80
2024/04/04 09:17:38;;;;;;;2.83;0.82;;;;;;;-145.69;41.33;52060.22;5076779;28;20234;-80
2024/04/04 09:20:06;;;;;;;2.42;0.88;;;;;;;-145.69;41.21;52083.97;5094553;28;20198;-80
2024/04/04 09:22:31;;;;;;;4.18;0.95;;;;;;;-145.69;40.86;52052.28;5094766;28;20277;-81
2024/04/04 09:24:59;;;;;;;2.03;0.70;;;;;;;-145.69;40.78;52060.22;5094563;28;20290;-78
2024/04/04 09:27:24;;;;;;;3.95;0.60;;;;;;;-145.69;40.87;52046.34;5094582;28;20213;-78
2024/04/04 09:29:52;;;;;;;5.38;1.00;;;;;;;-145.69;40.82;52012.69;5094276;28;20194;-79
2024/04/04 09:32:19;;;;;;;3.83;1.20;;;;;;;-145.69;39.78;52076.03;5094120;28;20243;-78
2024/04/04 09:34:47;;;;;;;3.05;0.90;;;;;;;-145.69;39.67;52097.84;5094273;28;20202;-79
2024/04/04 09:37:13;;;;;;;2.80;0.70;;;;;;;-145.69;40.01;52028.53;5094309;28;20684;-79
2024/04/04 09:39:44;;;;;;;5.03;0.90;;;;;;;-145.69;39.71;52056.25;5094197;28;20679;-79
2024/04/04 09:42:10;;;;;;;3.17;0.70;;;;;;;-145.69;40.72;52064.16;5094034;28;20661;-79
2024/04/04 09:44:36;;;;;;;7.13;1.10;;;;;;;-145.69;40.07;52097.84;5093860;28;20202;-78
2024/04/04 09:47:03;;;;;;;4.00;0.90;;;;;;;-145.69;40.25;52036.44;5093410;28;20198;-80
2024/04/04 09:49:31;;;;;;;3.45;0.93;;;;;;;-145.69;40.78;52032.47;5091476;28;20206;-77
2024/04/04 09:52:01;;;;;;;4.75;1.15;;;;;;;-145.69;40.17;52044.38;5093870;28;20238;-78
2024/04/04 09:54:28;;;;;;;3.70;0.85;;;;;;;-145.69;39.48;52018.63;5093952;28;20280;-78
2024/04/04 09:56:55;;;;;;;4.85;1.08;;;;;;;-145.69;39.11;52036.44;5094054;28;20254;-78
2024/04/04 09:59:28;;;;;;;3.15;0.85;;;;;;;-145.69;38.52;52066.16;5093828;28;20268;-79
2024/04/04 10:02:00;;;;;;;1.80;0.80;;;;;;;-145.69;38.82;52030.50;5093744;28;20192;-79
2024/04/04 10:04:33;;;;;;;2.67;1.15;;;;;;;-145.69;39.21;52012.69;5093094;28;20258;-79
2024/04/04 10:07:00;;;;;;;3.85;0.95;;;;;;;-145.69;38.18;51998.81;5093381;28;20209;-79
2024/04/04 10:09:28;;;;;;;3.58;0.98;;;;;;;-145.69;38.42;52052.28;5093893;28;20202;-79
2024/04/04 10:11:54;;;;;;;4.85;0.95;;;;;;;-145.69;38.15;52018.63;5093706;28;20231;-79
2024/04/04 10:14:22;;;;;;;3.53;1.13;;;;;;;-145.69;38.58;52040.41;5093612;28;20284;-79
2024/04/04 10:16:50;;;;;;;5.88;1.00;;;;;;;-145.69;39.21;52028.53;5093399;28;20233;-81
2024/04/04 10:19:18;;;;;;;1.25;0.63;;;;;;;-145.69;38.97;52044.38;5092860;28;20684;-81
2024/04/04 10:21:47;;;;;;;3.55;0.88;;;;;;;-145.69;38.86;52046.34;5093191;28;20198;-81
2024/04/04 10:24:23;;;;;;;4.32;0.90;;;;;;;-145.69;39.58;52044.38;5093233;28;20220;-80
2024/04/04 10:26:52;;;;;;;4.63;1.13;;;;;;;-145.69;39.52;52054.25;5092869;28;20197;-80
2024/04/04 10:29:17;;;;;;;4.85;0.80;;;;;;;-145.69;39.80;52060.22;5093341;28;20220;-80
2024/04/04 10:31:44;;;;;;;3.15;1.10;;;;;;;-145.69;40.16;52032.47;5087834;28;20279;-81
2024/04/04 10:34:11;;;;;;;3.85;0.88;;;;;;;-145.69;40.81;52078.03;5093149;28;20635;-79
2024/04/04 10:36:42;;;;;;;3.03;0.70;;;;;;;-145.69;41.36;52064.16;5093100;28;20565;-79
2024/04/04 10:39:12;;;;;;;4.22;1.02;;;;;;;-145.69;41.54;52087.94;5092336;28;20742;-80
2024/04/04 10:41:42;;;;;;;4.90;1.00;;;;;;;-145.69;40.84;52056.25;5092656;28;20191;-81
2024/04/04 10:44:10;;;;;;;2.97;0.80;;;;;;;-145.69;41.71;52076.03;5092795;28;20201;-79
2024/04/04 10:46:40;;;;;;;2.50;0.80;;;;;;;-145.69;40.57;52060.22;5092674;28;20871;-80
2024/04/04 10:49:06;;;;;;;7.43;0.73;;;;;;;-145.69;40.62;52076.03;5093041;28;20202;-80
2024/04/04 10:51:32;;;;;;;4.13;0.90;;;;;;;-145.69;40.13;52020.59;5092858;28;20198;-79
2024/04/04 10:54:00;;;;;;;6.45;1.33;;;;;;;-145.69;39.52;52036.44;5092564;28;20561;-78
2024/04/04 10:56:27;;;;;;;6.72;1.35;;;;;;;-145.69;38.74;52048.31;5091710;28;20198;-79
2024/04/04 10:58:54;;;;;;;3.38;0.90;;;;;;;-145.69;38.10;52032.47;5092290;28;20222;-79
2024/04/04 11:01:23;;;;;;;5.28;1.10;;;;;;;-145.69;39.06;52024.56;5092856;28;20225;-80
2024/04/04 11:03:53;;;;;;;2.10;0.70;;;;;;;-145.69;38.17;52000.81;5092769;28;20225;-81
2024/04/04 11:06:20;;;;;;;2.92;1.20;;;;;;;-145.69;37.99;52024.56;5092637;28;20674;-81
2024/04/04 11:08:46;;;;;;;6.07;0.90;;;;;;;-145.69;38.20;52018.63;5092465;28;20194;-79
2024/04/04 11:11:15;;;;;;;1.55;0.60;;;;;;;-145.69;38.29;52038.44;5092334;28;20198;-79
2024/04/04 11:13:42;;;;;;;2.83;0.70;;;;;;;-145.69;38.17;52036.44;5092650;28;20206;-80
2024/04/04 11:16:13;;;;;;;4.10;0.90;;;;;;;-145.69;37.98;52050.31;5091952;28;20230;-79
2024/04/04 11:18:39;;;;;;;2.45;0.70;;;;;;;-145.69;38.02;52044.38;5091614;28;20696;-79